createdAt,value
2018-05-16T00:00:12.555Z,81.16
2018-05-16T00:02:38.468Z,81.49
2018-05-16T00:05:04.368Z,80.68
2018-05-16T00:07:30.253Z,81.24
2018-05-16T00:09:56.583Z,82.01
2018-05-16T00:12:22.519Z,82.86
2018-05-16T00:14:48.992Z,82.25
2018-05-16T00:17:14.943Z,81.69
2018-05-16T00:19:40.872Z,81.07
2018-05-16T00:22:06.747Z,80.94
2018-05-16T00:24:32.696Z,81.30
2018-05-16T00:26:58.596Z,80.02
2018-05-16T00:29:24.491Z,79.24
2018-05-16T00:31:50.374Z,80.12
2018-05-16T00:34:16.286Z,81.44
2018-05-16T00:36:42.197Z,82.22
2018-05-16T00:39:08.092Z,82.28
2018-05-16T00:41:34.021Z,82.23
2018-05-16T00:43:59.958Z,82.55
2018-05-16T00:46:25.890Z,82.55
2018-05-16T00:48:51.775Z,81.11
2018-05-16T00:51:30.943Z,82.52
2018-05-16T00:53:56.833Z,83.58
2018-05-16T00:56:22.748Z,83.30
2018-05-16T00:58:48.685Z,82.35
2018-05-16T01:01:14.600Z,81.74
2018-05-16T01:03:40.520Z,81.34
2018-05-16T01:06:06.448Z,81.74
2018-05-16T01:08:32.380Z,80.23
2018-05-16T01:10:58.286Z,80.42
2018-05-16T01:13:24.521Z,81.35
2018-05-16T01:15:50.455Z,81.12
2018-05-16T01:18:16.372Z,80.87
2018-05-16T01:20:42.273Z,80.42
2018-05-16T01:23:08.201Z,80.04
2018-05-16T01:25:34.152Z,80.05
2018-05-16T01:28:00.054Z,79.97
2018-05-16T01:30:25.945Z,80.32
2018-05-16T01:32:51.860Z,80.06
2018-05-16T01:35:18.924Z,80.00
2018-05-16T01:37:44.820Z,80.04
2018-05-16T01:40:13.637Z,80.07
2018-05-16T01:42:39.541Z,80.09
2018-05-16T01:45:05.486Z,80.53
2018-05-16T01:47:31.385Z,80.57
2018-05-16T01:49:57.286Z,80.66
2018-05-16T01:52:25.557Z,80.55
2018-05-16T01:54:51.414Z,80.95
2018-05-16T01:57:20.344Z,80.71
2018-05-16T01:59:46.210Z,81.16
2018-05-16T02:02:15.593Z,80.73
2018-05-16T02:04:41.489Z,80.72
2018-05-16T02:07:10.631Z,81.21
2018-05-16T02:09:36.519Z,81.75
2018-05-16T02:12:04.172Z,81.07
2018-05-16T02:14:30.069Z,81.53
2018-05-16T02:16:58.839Z,83.14
2018-05-16T02:19:24.767Z,82.14
2018-05-16T02:21:50.652Z,84.80
2018-05-16T02:24:16.555Z,83.96
2018-05-16T02:26:42.476Z,84.24
2018-05-16T02:29:10.892Z,84.28
2018-05-16T02:31:36.781Z,84.06
2018-05-16T02:34:06.186Z,83.49
2018-05-16T02:36:32.096Z,81.83
2018-05-16T02:38:59.929Z,82.68
2018-05-16T02:41:25.799Z,83.79
2018-05-16T02:43:54.674Z,84.12
2018-05-16T02:46:20.589Z,84.96
2018-05-16T02:48:49.275Z,86.96
2018-05-16T02:51:15.182Z,88.35
2018-05-16T02:53:43.868Z,89.47
2018-05-16T02:56:09.784Z,89.62
2018-05-16T02:58:37.863Z,89.86
2018-05-16T03:01:03.809Z,89.65
2018-05-16T03:03:29.727Z,90.17
2018-05-16T03:05:56.613Z,89.22
2018-05-16T03:08:22.529Z,89.07
2018-05-16T03:10:51.796Z,88.80
2018-05-16T03:13:17.674Z,88.22
2018-05-16T03:15:45.494Z,87.15
2018-05-16T03:18:11.419Z,87.36
2018-05-16T03:20:40.860Z,87.37
2018-05-16T03:23:06.751Z,86.95
2018-05-16T03:25:36.603Z,86.13
2018-05-16T03:28:02.512Z,87.34
2018-05-16T03:30:29.787Z,87.22
2018-05-16T03:32:55.700Z,86.28
2018-05-16T03:35:21.789Z,86.59
2018-05-16T03:37:47.700Z,86.53
2018-05-16T03:40:13.624Z,86.02
2018-05-16T03:42:41.488Z,85.14
2018-05-16T03:45:07.418Z,84.62
2018-05-16T03:47:36.392Z,84.79
2018-05-16T03:50:02.350Z,84.94
2018-05-16T03:52:30.963Z,85.23
2018-05-16T03:54:56.842Z,84.59
2018-05-16T03:57:38.341Z,84.38
2018-05-16T04:00:16.796Z,84.37
2018-05-16T04:02:55.292Z,84.46
2018-05-16T04:05:21.195Z,84.27
2018-05-16T04:07:47.117Z,84.63
2018-05-16T04:10:12.991Z,85.12
2018-05-16T04:12:38.893Z,84.28
2018-05-16T04:15:04.748Z,84.93
2018-05-16T04:17:30.647Z,85.52
2018-05-16T04:19:56.535Z,84.98
2018-05-16T04:22:22.455Z,85.38
2018-05-16T04:24:48.338Z,85.54
2018-05-16T04:27:14.383Z,86.44
2018-05-16T04:29:40.294Z,86.49
2018-05-16T04:32:06.155Z,86.26
2018-05-16T04:34:32.052Z,85.43
2018-05-16T04:36:57.947Z,85.24
2018-05-16T04:39:23.884Z,85.64
2018-05-16T04:41:49.887Z,85.90
2018-05-16T04:44:15.712Z,86.60
2018-05-16T04:46:41.656Z,86.41
2018-05-16T04:49:07.548Z,86.26
2018-05-16T04:51:33.452Z,86.86
2018-05-16T04:53:59.363Z,86.29
2018-05-16T04:56:25.323Z,86.73
2018-05-16T04:58:51.255Z,87.85
2018-05-16T05:01:17.219Z,88.25
2018-05-16T05:03:43.081Z,87.05
2018-05-16T05:06:08.988Z,88.26
2018-05-16T05:08:34.904Z,87.73
2018-05-16T05:11:00.791Z,87.01
2018-05-16T05:13:26.686Z,87.34
2018-05-16T05:15:52.585Z,86.90
2018-05-16T05:18:18.561Z,86.99
2018-05-16T05:20:46.203Z,86.54
2018-05-16T05:23:12.083Z,88.56
2018-05-16T05:25:37.944Z,88.82
2018-05-16T05:28:04.372Z,89.77
2018-05-16T05:30:30.336Z,90.47
2018-05-16T05:32:57.993Z,90.93
2018-05-16T05:35:23.946Z,89.61
2018-05-16T05:37:53.354Z,90.23
2018-05-16T05:40:19.317Z,91.51
2018-05-16T05:42:48.385Z,90.28
2018-05-16T05:45:14.341Z,91.09
2018-05-16T05:47:41.558Z,91.74
2018-05-16T05:50:07.478Z,91.25
2018-05-16T05:52:36.459Z,89.99
2018-05-16T05:55:02.351Z,91.05
2018-05-16T05:57:31.282Z,90.77
2018-05-16T05:59:57.213Z,90.35
2018-05-16T06:02:23.104Z,88.93
2018-05-16T06:04:49.023Z,90.11
2018-05-16T06:07:14.908Z,90.01
2018-05-16T06:09:42.705Z,89.58
2018-05-16T06:12:08.582Z,89.12
2018-05-16T06:14:37.731Z,88.80
2018-05-16T06:17:03.642Z,88.71
2018-05-16T06:19:32.798Z,88.29
2018-05-16T06:21:58.646Z,87.31
2018-05-16T06:24:27.932Z,86.85
2018-05-16T06:26:53.823Z,83.64
2018-05-16T06:29:23.285Z,84.56
2018-05-16T06:31:49.216Z,84.14
2018-05-16T06:34:16.259Z,83.95
2018-05-16T06:36:42.134Z,81.20
2018-05-16T06:39:08.114Z,81.62
2018-05-16T06:41:34.068Z,80.93
2018-05-16T06:43:59.963Z,79.98
2018-05-16T06:46:29.639Z,82.44
2018-05-16T06:48:55.714Z,81.96
2018-05-16T06:51:22.843Z,83.00
2018-05-16T06:53:48.761Z,80.97
2018-05-16T06:56:18.282Z,81.81
2018-05-16T06:58:44.183Z,81.21
2018-05-16T07:01:12.092Z,80.20
2018-05-16T07:03:37.980Z,80.42
2018-05-16T07:06:07.636Z,80.75
2018-05-16T07:08:33.537Z,79.26
2018-05-16T07:11:02.543Z,81.61
2018-05-16T07:13:28.528Z,81.77
2018-05-16T07:15:54.370Z,82.20
2018-05-16T07:18:20.272Z,82.46
2018-05-16T07:20:46.167Z,83.09
2018-05-16T07:23:13.007Z,83.16
2018-05-16T07:25:38.877Z,82.33
2018-05-16T07:28:07.882Z,81.55
2018-05-16T07:30:33.804Z,82.70
2018-05-16T07:33:02.719Z,81.32
2018-05-16T07:35:28.634Z,80.84
2018-05-16T07:37:58.452Z,80.51
2018-05-16T07:40:24.347Z,80.05
2018-05-16T07:42:53.443Z,81.48
2018-05-16T07:45:19.343Z,82.64
2018-05-16T07:47:46.852Z,82.46
2018-05-16T07:50:12.773Z,81.95
2018-05-16T07:52:38.685Z,83.00
2018-05-16T07:55:04.603Z,83.30
2018-05-16T07:57:30.491Z,84.12
2018-05-16T07:59:58.694Z,85.52
2018-05-16T08:02:24.619Z,87.42
2018-05-16T08:04:54.126Z,87.99
2018-05-16T08:07:19.994Z,87.15
2018-05-16T08:09:49.479Z,86.93
2018-05-16T08:12:15.440Z,86.08
2018-05-16T08:14:44.143Z,86.44
2018-05-16T08:17:10.111Z,85.67
2018-05-16T08:19:39.338Z,86.92
2018-05-16T08:22:05.269Z,86.46
2018-05-16T08:24:32.324Z,87.10
2018-05-16T08:26:58.249Z,86.36
2018-05-16T08:29:24.145Z,86.86
2018-05-16T08:31:50.029Z,86.82
2018-05-16T08:34:15.955Z,85.24
2018-05-16T08:36:45.020Z,85.23
2018-05-16T08:39:10.879Z,85.20
2018-05-16T08:41:38.749Z,84.80
2018-05-16T08:44:04.636Z,85.28
2018-05-16T08:46:33.472Z,83.55
2018-05-16T08:48:59.335Z,84.41
2018-05-16T08:51:29.005Z,84.51
2018-05-16T08:53:54.924Z,84.98
2018-05-16T08:56:22.787Z,85.67
2018-05-16T08:58:48.633Z,85.41
2018-05-16T09:01:21.428Z,85.49
2018-05-16T09:03:47.321Z,85.61
2018-05-16T09:06:13.213Z,86.35
2018-05-16T09:08:39.091Z,85.62
2018-05-16T09:11:05.029Z,85.55
2018-05-16T09:13:30.924Z,86.17
2018-05-16T09:15:56.839Z,86.68
2018-05-16T09:18:24.619Z,85.61
2018-05-16T09:20:50.508Z,85.69
2018-05-16T09:23:19.569Z,84.22
2018-05-16T09:25:45.473Z,85.28
2018-05-16T09:28:13.651Z,85.38
2018-05-16T09:30:39.567Z,85.76
2018-05-16T09:33:08.711Z,81.54
2018-05-16T09:35:34.657Z,83.33
2018-05-16T09:38:03.888Z,82.07
2018-05-16T09:40:29.787Z,81.37
2018-05-16T09:42:55.714Z,83.62
2018-05-16T09:45:21.591Z,82.43
2018-05-16T09:47:47.475Z,82.86
2018-05-16T09:50:14.711Z,83.62
2018-05-16T09:52:40.620Z,81.58
2018-05-16T09:55:09.549Z,82.10
2018-05-16T09:57:35.451Z,80.61
2018-05-16T10:00:04.949Z,80.04
2018-05-16T10:02:30.845Z,81.41
2018-05-16T10:04:59.024Z,80.57
2018-05-16T10:07:24.932Z,80.29
2018-05-16T10:09:54.257Z,82.00
2018-05-16T10:12:20.107Z,81.97
2018-05-16T10:14:50.912Z,81.83
2018-05-16T10:17:16.836Z,83.28
2018-05-16T10:19:42.710Z,82.11
2018-05-16T10:22:08.593Z,81.60
2018-05-16T10:24:34.510Z,78.35
2018-05-16T10:27:00.460Z,81.69
2018-05-16T10:29:26.327Z,79.71
2018-05-16T10:31:55.393Z,81.22
2018-05-16T10:34:21.341Z,78.66
2018-05-16T10:36:50.356Z,76.74
2018-05-16T10:39:16.242Z,77.90
2018-05-16T10:41:44.191Z,78.42
2018-05-16T10:44:10.087Z,76.52
2018-05-16T10:46:39.235Z,76.14
2018-05-16T10:49:05.161Z,77.62
2018-05-16T10:51:35.040Z,74.79
2018-05-16T10:54:08.250Z,73.21
2018-05-16T10:56:34.145Z,75.37
2018-05-16T10:59:00.013Z,71.23
2018-05-16T11:01:25.940Z,71.99
2018-05-16T11:03:52.231Z,73.07
2018-05-16T11:06:18.163Z,72.93
2018-05-16T11:08:44.036Z,72.75
2018-05-16T11:11:09.923Z,71.80
2018-05-16T11:13:35.855Z,72.24
2018-05-16T11:16:01.750Z,73.50
2018-05-16T11:18:29.298Z,74.81
2018-05-16T11:20:55.216Z,74.46
2018-05-16T11:23:24.184Z,76.14
2018-05-16T11:39:08.519Z,75.37
2018-05-16T11:41:34.387Z,72.51
2018-05-16T11:44:00.291Z,71.67
2018-05-16T11:46:26.212Z,69.60
2018-05-16T11:48:52.194Z,67.30
2018-05-16T11:51:18.023Z,69.33
2018-05-16T11:53:43.930Z,68.62
2018-05-16T11:56:09.806Z,69.61
2018-05-16T11:58:48.967Z,67.12
2018-05-16T12:01:14.865Z,70.71
2018-05-16T12:03:44.487Z,69.73
2018-05-16T12:06:10.384Z,71.13
2018-05-16T12:08:37.651Z,70.07
2018-05-16T12:11:03.509Z,70.49
2018-05-16T12:13:32.673Z,71.60
2018-05-16T12:15:58.563Z,68.31
2018-05-16T12:18:28.157Z,65.56
2018-05-16T12:20:54.106Z,65.62
2018-05-16T12:23:23.398Z,62.83
2018-05-16T12:25:49.319Z,60.56
2018-05-16T12:28:16.491Z,64.33
2018-05-16T12:30:42.414Z,64.51
2018-05-16T12:33:11.586Z,65.17
2018-05-16T12:35:37.478Z,65.49
2018-05-16T12:38:06.865Z,67.39
2018-05-16T12:40:32.748Z,68.27
2018-05-16T12:45:52.046Z,70.33
2018-05-16T12:48:17.984Z,69.86
2018-05-16T12:50:43.901Z,71.17
2018-05-16T12:53:09.774Z,69.06
2018-05-16T12:55:35.782Z,70.87
2018-05-16T12:58:01.580Z,72.21
2018-05-16T13:00:27.489Z,71.14
2018-05-16T13:02:53.369Z,71.71
2018-05-16T13:05:19.287Z,71.99
2018-05-16T13:07:45.167Z,72.99
2018-05-16T13:10:11.072Z,73.38
2018-05-16T13:12:37.020Z,71.93
2018-05-16T13:15:02.958Z,71.19
2018-05-16T13:17:28.877Z,73.14
2018-05-16T13:19:54.963Z,72.29
2018-05-16T13:22:20.874Z,71.50
2018-05-16T13:24:46.781Z,71.93
2018-05-16T13:27:12.810Z,71.17
2018-05-16T13:29:38.976Z,68.92
2018-05-16T13:32:04.890Z,67.45
2018-05-16T13:34:30.804Z,66.79
2018-05-16T13:36:56.697Z,65.69
2018-05-16T13:39:22.608Z,63.71
2018-05-16T13:41:48.507Z,63.46
2018-05-16T13:44:14.391Z,62.28
2018-05-16T13:46:41.835Z,63.61
2018-05-16T13:49:07.766Z,63.68
2018-05-16T13:51:37.044Z,64.54
2018-05-16T13:54:02.967Z,61.62
2018-05-16T13:56:32.667Z,62.25
2018-05-16T13:58:58.606Z,61.16
2018-05-16T14:01:25.988Z,63.37
2018-05-16T14:03:51.863Z,62.24
2018-05-16T14:06:20.645Z,60.65
2018-05-16T14:08:46.577Z,61.03
2018-05-16T14:11:15.427Z,61.15
2018-05-16T14:13:41.319Z,58.73
2018-05-16T14:16:07.243Z,59.30
2018-05-16T14:18:33.166Z,55.88
2018-05-16T14:20:59.024Z,55.90
2018-05-16T14:23:28.215Z,56.22
2018-05-16T14:25:54.118Z,51.25
2018-05-16T14:28:21.895Z,54.20
2018-05-16T14:30:47.813Z,55.20
2018-05-16T14:33:17.120Z,53.64
2018-05-16T14:35:43.019Z,54.14
2018-05-16T14:38:12.412Z,54.96
2018-05-16T14:40:38.337Z,54.35
2018-05-16T14:43:07.607Z,55.94
2018-05-16T14:45:33.507Z,59.69
2018-05-16T14:48:00.779Z,60.83
2018-05-16T14:50:26.679Z,61.06
2018-05-16T14:52:52.563Z,61.71
2018-05-16T14:55:18.467Z,61.49
2018-05-16T14:57:44.399Z,62.97
2018-05-16T15:00:14.120Z,63.14
2018-05-16T15:02:40.036Z,63.83
2018-05-16T15:05:07.612Z,63.94
2018-05-16T15:07:33.580Z,65.36
2018-05-16T15:10:02.988Z,64.38
2018-05-16T15:12:28.915Z,61.42
2018-05-16T15:14:58.282Z,60.86
2018-05-16T15:17:24.223Z,63.63
2018-05-16T15:19:51.831Z,67.60
2018-05-16T15:22:17.727Z,68.10
2018-05-16T15:24:47.211Z,69.69
2018-05-16T15:27:13.128Z,73.00
2018-05-16T15:29:39.020Z,74.42
2018-05-16T15:32:04.947Z,73.85
2018-05-16T15:34:30.866Z,74.34
2018-05-16T15:36:58.339Z,74.49
2018-05-16T15:39:24.268Z,75.53
2018-05-16T15:41:52.608Z,75.15
2018-05-16T15:44:18.553Z,74.89
2018-05-16T15:46:47.308Z,75.16
2018-05-16T15:49:13.211Z,75.13
2018-05-16T15:51:42.821Z,74.49
2018-05-16T15:54:08.733Z,74.71
2018-05-16T15:56:36.661Z,73.17
2018-05-16T15:59:02.563Z,74.37
2018-05-16T16:01:32.306Z,73.49
2018-05-16T16:03:58.242Z,73.70
2018-05-16T16:06:24.128Z,70.95
2018-05-16T16:08:50.069Z,68.63
2018-05-16T16:11:16.017Z,67.64
2018-05-16T16:13:43.838Z,69.36
2018-05-16T16:16:09.768Z,70.16
2018-05-16T16:18:39.562Z,72.77
2018-05-16T16:21:05.478Z,74.43
2018-05-16T16:23:33.925Z,73.89
2018-05-16T16:25:59.827Z,73.60
2018-05-16T16:28:27.268Z,72.69
2018-05-16T16:30:53.179Z,73.55
2018-05-16T16:33:23.034Z,73.07
2018-05-16T16:35:48.963Z,74.65
2018-05-16T16:38:16.803Z,75.63
2018-05-16T16:40:42.705Z,76.06
2018-05-16T16:43:08.643Z,71.88
2018-05-16T16:45:34.564Z,72.37
2018-05-16T16:48:00.483Z,69.96
2018-05-16T16:52:54.060Z,69.59
2018-05-16T16:55:22.955Z,68.96
2018-05-16T16:57:48.871Z,67.66
2018-05-16T17:00:17.829Z,70.33
2018-05-16T17:02:43.746Z,70.92
2018-05-16T17:05:13.436Z,68.29
2018-05-16T17:07:41.200Z,66.01
2018-05-16T17:10:09.025Z,64.95
2018-05-16T17:12:34.928Z,65.70
2018-05-16T17:15:02.684Z,66.54
2018-05-16T17:17:28.588Z,68.35
2018-05-16T17:19:54.499Z,68.75
2018-05-16T17:22:23.858Z,66.13
2018-05-16T17:24:50.012Z,68.12
2018-05-16T17:27:17.791Z,68.36
2018-05-16T17:29:44.036Z,68.38
2018-05-16T17:32:09.999Z,69.65
2018-05-16T17:34:35.921Z,68.63
2018-05-16T17:37:03.378Z,69.78
2018-05-16T17:39:29.340Z,68.58
2018-05-16T17:41:58.113Z,68.39
2018-05-16T17:44:24.040Z,69.35
2018-05-16T17:46:53.307Z,71.11
2018-05-16T17:49:20.339Z,70.57
2018-05-16T17:51:47.811Z,71.90
2018-05-16T17:54:13.757Z,71.71
2018-05-16T17:56:39.715Z,74.53
2018-05-16T17:59:05.640Z,74.88
2018-05-16T18:01:31.529Z,77.08
2018-05-16T18:04:01.600Z,75.46
2018-05-16T18:06:27.576Z,76.76
2018-05-16T18:08:54.163Z,76.96
2018-05-16T18:11:26.822Z,76.29
2018-05-16T18:14:05.428Z,76.12
2018-05-16T18:16:43.763Z,73.86
2018-05-16T18:19:09.707Z,74.03
2018-05-16T18:21:35.590Z,76.03
2018-05-16T18:24:01.495Z,76.83
2018-05-16T18:26:27.602Z,74.94
2018-05-16T18:28:53.539Z,77.89
2018-05-16T18:31:19.467Z,78.14
2018-05-16T18:33:45.407Z,79.38
2018-05-16T18:36:11.295Z,79.21
2018-05-16T18:38:37.237Z,80.03
2018-05-16T18:41:03.143Z,80.85
2018-05-16T18:43:29.032Z,80.52
2018-05-16T18:45:55.175Z,80.13
2018-05-16T18:48:21.142Z,79.85
2018-05-16T18:50:47.015Z,79.98
2018-05-16T18:53:12.928Z,81.59
2018-05-16T18:55:38.878Z,82.75
2018-05-16T18:58:04.783Z,82.28
2018-05-16T19:00:30.691Z,82.29
2018-05-16T19:02:56.622Z,82.28
2018-05-16T19:05:22.599Z,82.27
2018-05-16T19:07:48.486Z,81.06
2018-05-16T19:10:14.417Z,81.01
2018-05-16T19:12:40.315Z,81.03
2018-05-16T19:15:06.222Z,81.06
2018-05-16T19:17:32.113Z,81.57
2018-05-16T19:19:58.077Z,82.01
2018-05-16T19:22:24.915Z,81.87
2018-05-16T19:24:50.861Z,81.34
2018-05-16T19:27:19.415Z,80.87
2018-05-16T19:29:45.276Z,81.01
2018-05-16T19:32:13.768Z,81.64
2018-05-16T19:34:39.707Z,81.85
2018-05-16T19:37:09.304Z,82.54
2018-05-16T19:39:35.223Z,82.99
2018-05-16T19:42:04.880Z,83.01
2018-05-16T19:44:30.778Z,82.74
2018-05-16T19:46:56.696Z,83.39
2018-05-16T19:49:22.683Z,83.58
2018-05-16T19:51:48.679Z,85.28
2018-05-16T19:54:15.599Z,85.17
2018-05-16T19:56:41.511Z,84.40
2018-05-16T19:59:11.278Z,82.76
2018-05-16T20:01:37.189Z,83.36
2018-05-16T20:04:04.636Z,83.21
2018-05-16T20:06:30.809Z,83.49
2018-05-16T20:09:00.106Z,82.97
2018-05-16T20:11:25.976Z,83.26
2018-05-16T20:13:53.778Z,82.96
2018-05-16T20:16:19.838Z,83.39
2018-05-16T20:18:48.905Z,84.29
2018-05-16T20:21:14.830Z,83.58
2018-05-16T20:23:40.748Z,83.19
2018-05-16T20:26:06.650Z,83.48
2018-05-16T20:28:32.554Z,83.66
2018-05-16T20:31:01.877Z,83.34
2018-05-16T20:33:27.771Z,83.10
2018-05-16T20:35:55.444Z,84.29
2018-05-16T20:38:21.329Z,84.48
2018-05-16T20:40:50.635Z,83.98
2018-05-16T20:43:16.554Z,84.06
2018-05-16T20:45:44.281Z,83.86
2018-05-16T20:48:10.178Z,83.62
2018-05-16T20:50:38.767Z,83.54
2018-05-16T20:53:04.620Z,82.99
2018-05-16T20:55:33.518Z,82.82
2018-05-16T20:57:59.552Z,82.60
2018-05-16T21:00:25.447Z,83.12
2018-05-16T21:02:51.395Z,83.83
2018-05-16T21:05:17.324Z,85.30
2018-05-16T21:07:47.028Z,86.14
2018-05-16T21:10:12.922Z,85.57
2018-05-16T21:12:40.715Z,85.81
2018-05-16T21:15:06.924Z,85.22
2018-05-16T21:17:35.251Z,84.99
2018-05-16T21:20:01.191Z,83.96
2018-05-16T21:22:30.588Z,83.14
2018-05-16T21:24:56.498Z,81.98
2018-05-16T21:27:26.237Z,81.96
2018-05-16T21:29:52.170Z,81.26
2018-05-16T21:32:19.139Z,81.33
2018-05-16T21:34:45.023Z,80.72
2018-05-16T21:37:10.969Z,80.69
2018-05-16T21:39:36.883Z,81.22
2018-05-16T21:42:02.861Z,81.15
2018-05-16T21:44:32.573Z,81.63
2018-05-16T21:46:58.465Z,81.99
2018-05-16T21:49:26.207Z,82.15
2018-05-16T21:51:52.079Z,81.29
2018-05-16T21:54:20.243Z,81.43
2018-05-16T21:56:46.261Z,82.03
2018-05-16T21:59:15.019Z,82.37
2018-05-16T22:01:40.934Z,82.28
2018-05-16T22:04:09.915Z,80.95
2018-05-16T22:06:35.842Z,81.58
2018-05-16T22:09:05.401Z,82.14
2018-05-16T22:11:31.295Z,82.68
2018-05-16T22:13:57.191Z,82.61
2018-05-16T22:16:23.103Z,81.86
2018-05-16T22:18:49.016Z,81.68
2018-05-16T22:21:16.558Z,81.28
2018-05-16T22:23:42.438Z,81.79
2018-05-16T22:26:10.835Z,81.84
2018-05-16T22:28:36.761Z,82.18
2018-05-16T22:31:11.826Z,82.39
2018-05-16T22:33:43.941Z,82.24
2018-05-16T22:36:16.135Z,82.89
2018-05-16T22:38:48.087Z,84.69
2018-05-16T22:41:20.234Z,84.01
2018-05-16T22:44:00.052Z,84.38
2018-05-16T22:46:25.971Z,84.44
2018-05-16T22:48:51.891Z,84.41
2018-05-16T22:51:17.829Z,84.39
2018-05-16T22:53:43.734Z,84.28
2018-05-16T22:56:09.643Z,84.38
2018-05-16T22:58:35.631Z,84.53
2018-05-16T23:01:01.520Z,84.90
2018-05-16T23:03:27.427Z,84.88
2018-05-16T23:05:53.330Z,83.77
2018-05-16T23:08:19.245Z,83.25
2018-05-16T23:10:45.172Z,83.03
2018-05-16T23:13:11.078Z,83.42
2018-05-16T23:15:36.964Z,83.40
2018-05-16T23:18:02.874Z,83.58
2018-05-16T23:20:43.715Z,83.74
2018-05-16T23:23:09.586Z,83.37
2018-05-16T23:25:35.533Z,83.87
2018-05-16T23:28:01.433Z,84.35
2018-05-16T23:30:27.327Z,84.18
2018-05-16T23:32:53.226Z,84.13
2018-05-16T23:35:19.100Z,84.21
2018-05-16T23:37:45.021Z,83.65
2018-05-16T23:40:10.948Z,83.91
2018-05-16T23:42:36.832Z,84.14
2018-05-16T23:45:02.731Z,83.20
2018-05-16T23:47:28.627Z,83.13
2018-05-16T23:49:54.509Z,82.80
2018-05-16T23:52:20.443Z,82.77
2018-05-16T23:54:47.306Z,82.74
2018-05-16T23:57:13.181Z,82.78
2018-05-16T23:59:39.107Z,82.44
